Telsiai, Lithuania

1:21 AM EEST on September 23, 2014 (GMT +0300)
Siauliai International | Change Station
CLOSE
Current Station
Airport
Location: Siauliai,
Elevation: 443 ft
Nearby Weather Stations

Elev 443 ft 55.89 °N, 23.40 °E | Updated 31 minutes ago

Scattered Clouds
Scattered Clouds
54 °F
Feels Like 54 °F
N
9
Wind Variable Wind from West

Today
High -- | Low -- °F
--% Chance of Precip.
Yesterday
High -- | Low -- °F
Precip. -- in
7:17 AM 7:27 PM
Waning Crescent, 2% visible
Pressure 29.53 in
Visibility 6.2 miles
Clouds Few 2100 ft
Scattered Clouds 9800 ft
Dew Point 50 °F
Humidity 88%
Rainfall 0.00 in
Snow Depth Not available.
UV 0 out of 12
Pollen Not available.
Air Quality Not available.
Flu Activity Not available.
METAR EYSA 222150Z AUTO 28008KT 9999NDV FEW021 SCT098 12/10 Q1000

More Conditions Fewer Conditions

Pressure 29.53 in
Visibility 6.2 miles
Clouds Few 2100 ft
Scattered Clouds 9800 ft
Dew Point 50 °F
Humidity 88%
Rainfall 0.00 in
Snow Depth Not available.
UV 0 out of 12
Pollen Not available.
Air Quality Not available.
Flu Activity Not available.
METAR EYSA 222150Z AUTO 28008KT 9999NDV FEW021 SCT098 12/10 Q1000

More Conditions Fewer Conditions

10-Day Weather Forecast

Almanac

Astronomy

Sep. 23, 2014 Rise Set
Actual Time 7:17 AM EEST 7:27 PM EEST
Civil Twilight 6:40 AM EEST 8:04 PM EEST
Nautical Twilight 5:56 AM EEST 8:48 PM EEST
Astronomical Twilight 5:09 AM EEST 9:35 PM EEST
Moon 6:20 AM EEST (9/23) 6:56 PM EEST (9/23)
Length of Visible Light 13h 24m
Length of Day
12h 10m
Tomorrow will be 4m 37s shorter.
Waning Crescent, 2% of the Moon is Illuminated
Sep 22
Waning Crescent
Sep 24
New
Oct 1
First Quarter
Oct 8
Full
Oct 15
Last Quarter

Yesterday's Extremes

Country Highs Country Lows

Community

WunderPhotos

Upload Photos

1,755,541 photos uploaded!

Nearby

Snow Depth

Not available.

Earthquake Activity

City Distance Mag. Time & Date
No recent earthquake activity has been reported nearby.
Minimum magnitude displayed is 2.5.

Coastal Water Temperatures

Place Temperature
No Stations Reporting

Nearby Weather Stations